Time;durP1;ratioP1;P1;durP2;ratioP2;P2;SDS_P1;SDS_P2;PMS_P1;PMS_P2;Temp;Humidity;BMP_temperature;BMP_pressure;BME280_temperature;BME280_humidity;BME280_pressure;Samples;Min_cycle;Max_cycle;Signal;HPM_P1;HPM_P2
2022/06/11 00:02:08;;;;;;;10.30;6.80;;;;;;;19.92;62.29;99924.25;7716917;32;40072;-72
2022/06/11 00:06:26;;;;;;;10.93;7.10;;;;;;;20.07;61.73;99926.47;7717556;32;40019;-73
2022/06/11 00:10:43;;;;;;;12.25;7.57;;;;;;;20.01;61.84;99916.72;7717306;32;38142;-73
2022/06/11 00:15:00;;;;;;;13.00;7.40;;;;;;;19.97;61.65;99921.28;7717643;32;37924;-73
2022/06/11 00:19:19;;;;;;;14.05;7.43;;;;;;;20.00;61.23;99921.44;7717375;32;40044;-73
2022/06/11 00:23:35;;;;;;;11.65;7.35;;;;;;;19.86;61.83;99920.84;7717656;32;39980;-73
2022/06/11 00:27:51;;;;;;;11.10;7.22;;;;;;;19.88;61.70;99919.38;7717538;32;37524;-73
2022/06/11 00:32:08;;;;;;;12.05;7.95;;;;;;;19.69;62.51;99925.25;7717472;32;37144;-74
2022/06/11 00:36:25;;;;;;;13.40;8.45;;;;;;;19.70;62.29;99917.78;7714298;32;39500;-73
2022/06/11 00:40:44;;;;;;;13.85;7.60;;;;;;;19.67;62.28;99923.97;7712306;32;40496;-73
2022/06/11 00:45:22;;;;;;;15.18;7.87;;;;;;;19.64;62.19;99935.69;7711196;32;37906;-74
2022/06/11 00:49:46;;;;;;;12.05;6.82;;;;;;;19.61;62.19;99937.16;7712554;32;38056;-74
2022/06/11 00:54:08;;;;;;;11.00;6.72;;;;;;;19.87;61.22;99928.81;7711849;32;39346;-74
2022/06/11 00:58:29;;;;;;;12.63;7.45;;;;;;;19.83;61.16;99916.81;7712284;32;39870;-73
2022/06/11 01:02:47;;;;;;;11.65;7.47;;;;;;;19.80;61.30;99911.94;7712266;32;38846;-73
2022/06/11 01:07:10;;;;;;;11.52;7.43;;;;;;;19.76;61.29;99916.47;7712209;32;37273;-73
2022/06/11 01:11:55;;;;;;;12.02;7.45;;;;;;;19.60;62.52;99920.91;7710554;32;39261;-73
2022/06/11 01:16:24;;;;;;;10.60;7.10;;;;;;;19.47;62.80;99918.00;7711913;32;40814;-73
2022/06/11 01:20:49;;;;;;;11.27;7.18;;;;;;;19.46;62.81;99927.44;7711950;32;37897;-73
2022/06/11 01:25:33;;;;;;;13.50;7.22;;;;;;;19.50;62.72;99920.09;7710824;32;37163;-74
2022/06/11 01:30:08;;;;;;;16.08;7.55;;;;;;;19.37;62.86;99926.66;7706134;32;39389;-74
2022/06/11 01:34:41;;;;;;;11.40;6.72;;;;;;;19.35;63.14;99937.22;7710708;32;40708;-73
2022/06/11 01:39:06;;;;;;;10.77;6.53;;;;;;;19.41;62.91;99926.81;7710628;32;37983;-73
2022/06/11 01:43:40;;;;;;;10.73;7.28;;;;;;;19.51;62.34;99932.78;7710400;32;37178;-73
2022/06/11 01:47:58;;;;;;;12.00;7.57;;;;;;;19.44;62.60;99929.72;7710372;32;39413;-73
2022/06/11 01:52:31;;;;;;;11.57;7.20;;;;;;;19.20;63.12;99932.19;7711624;32;39994;-73
2022/06/11 01:56:53;;;;;;;12.43;7.10;;;;;;;19.30;62.83;99937.41;7711573;32;37968;-73
2022/06/11 02:01:27;;;;;;;11.80;6.85;;;;;;;19.22;62.82;99943.72;7711381;32;36823;-72
2022/06/11 02:05:48;;;;;;;12.20;7.43;;;;;;;19.07;63.27;99945.84;7923490;27;39049;-74
2022/06/11 02:10:23;;;;;;;12.00;7.12;;;;;;;19.22;62.62;99936.25;7709286;32;40032;-74
2022/06/11 02:14:54;;;;;;;11.73;6.97;;;;;;;18.98;63.24;99942.25;7711402;32;38707;-73
2022/06/11 02:19:16;;;;;;;11.50;7.53;;;;;;;19.06;63.11;99954.47;7709826;32;37085;-73
2022/06/11 02:23:43;;;;;;;12.73;6.87;;;;;;;19.04;63.41;99957.56;7710380;32;40034;-73
2022/06/11 02:28:03;;;;;;;11.80;7.03;;;;;;;19.05;63.14;99959.16;7710191;32;40877;-74
2022/06/11 02:32:21;;;;;;;12.00;7.18;;;;;;;18.98;63.33;99964.38;7711012;32;37901;-73
2022/06/11 02:37:04;;;;;;;14.63;7.50;;;;;;;19.08;62.79;99958.53;7710789;32;36187;-73
2022/06/11 02:41:27;;;;;;;12.88;7.30;;;;;;;18.90;63.42;99960.47;7711279;32;38778;-73
2022/06/11 02:45:44;;;;;;;11.82;7.62;;;;;;;18.91;63.41;99964.03;7711037;32;40864;-73
2022/06/11 02:50:00;;;;;;;12.20;7.40;;;;;;;19.13;62.38;99963.87;7710555;32;38139;-74
2022/06/11 02:54:17;;;;;;;14.73;8.27;;;;;;;19.12;62.13;99965.00;7710505;32;37264;-74
2022/06/11 02:58:33;;;;;;;12.65;7.82;;;;;;;18.86;63.04;99972.47;7710355;32;40033;-74
2022/06/11 03:02:49;;;;;;;13.07;7.85;;;;;;;18.91;63.13;99964.84;7710742;32;40700;-74
2022/06/11 03:07:08;;;;;;;12.07;8.02;;;;;;;19.06;62.54;99965.53;7710461;32;38769;-73
2022/06/11 03:11:25;;;;;;;10.57;7.35;;;;;;;19.20;61.66;99954.31;7721662;32;36008;-73
2022/06/11 03:15:41;;;;;;;12.68;7.72;;;;;;;19.12;61.83;99953.97;7710496;32;39418;-74
2022/06/11 03:19:57;;;;;;;12.45;7.60;;;;;;;18.77;63.17;99958.62;7710523;32;39978;-73
2022/06/11 03:24:13;;;;;;;16.33;7.90;;;;;;;18.94;62.61;99961.44;7710241;32;37853;-74
2022/06/11 03:28:30;;;;;;;10.65;7.45;;;;;;;18.91;62.83;99950.22;7709522;32;37864;-73
2022/06/11 03:32:46;;;;;;;11.20;7.03;;;;;;;19.00;62.46;99961.28;7710143;32;39308;-73
2022/06/11 03:37:04;;;;;;;12.65;7.47;;;;;;;18.87;62.79;99969.41;7710062;32;40066;-73
2022/06/11 03:41:21;;;;;;;12.73;7.50;;;;;;;18.83;63.29;99979.44;7709774;32;37840;-74
2022/06/11 03:45:38;;;;;;;10.50;7.55;;;;;;;19.05;62.63;99974.94;7709329;32;37423;-74
2022/06/11 03:49:54;;;;;;;13.65;6.65;;;;;;;19.11;62.11;99968.94;7709668;32;40337;-74
2022/06/11 03:54:11;;;;;;;11.30;7.22;;;;;;;18.94;63.10;99979.97;7709552;32;39902;-74
2022/06/11 03:58:27;;;;;;;12.32;8.05;;;;;;;18.95;63.30;99987.09;7709465;32;38638;-73
2022/06/11 04:02:43;;;;;;;12.52;8.13;;;;;;;18.79;64.10;99985.94;7708693;32;37133;-73
2022/06/11 04:07:01;;;;;;;13.95;8.20;;;;;;;19.03;63.57;99980.78;7708742;32;39993;-73
2022/06/11 04:11:17;;;;;;;12.65;7.70;;;;;;;18.81;64.42;99972.59;7710162;32;39850;-73
2022/06/11 04:15:34;;;;;;;12.00;7.10;;;;;;;19.06;63.51;99977.38;7712444;32;37987;-73
2022/06/11 04:19:51;;;;;;;14.00;8.02;;;;;;;18.96;64.06;99980.44;7712898;32;36873;-73
2022/06/11 04:24:08;;;;;;;11.82;8.00;;;;;;;19.01;64.03;99985.81;7712882;32;38929;-74
2022/06/11 04:28:28;;;;;;;13.82;7.75;;;;;;;19.09;63.75;99973.97;7712714;32;40576;-74
2022/06/11 04:32:44;;;;;;;10.25;7.32;;;;;;;19.20;63.67;99976.41;7712706;32;38459;-74
2022/06/11 04:37:01;;;;;;;17.08;8.48;;;;;;;19.14;63.68;99972.97;7712635;32;37666;-74
2022/06/11 04:41:17;;;;;;;11.55;8.02;;;;;;;19.03;63.50;99983.53;7712400;32;39601;-74
2022/06/11 04:45:34;;;;;;;14.55;8.13;;;;;;;19.22;63.07;99974.94;7723789;32;39973;-73
2022/06/11 04:49:52;;;;;;;12.25;7.95;;;;;;;19.41;63.07;99987.63;7712069;32;37584;-73
2022/06/11 04:54:09;;;;;;;16.27;8.20;;;;;;;19.74;62.09;99985.16;7712531;32;36889;-73
2022/06/11 04:58:25;;;;;;;11.18;6.53;;;;;;;19.67;62.39;99985.63;7711613;32;40071;-73
2022/06/11 05:02:41;;;;;;;12.40;7.50;;;;;;;19.93;61.78;99990.31;7710980;32;39904;-74
2022/06/11 05:06:58;;;;;;;11.88;7.70;;;;;;;20.01;61.40;99991.44;7710295;32;37940;-73
2022/06/11 05:11:14;;;;;;;11.20;7.85;;;;;;;20.09;61.36;99990.59;7712166;32;38096;-74
2022/06/11 05:15:31;;;;;;;12.13;7.93;;;;;;;20.22;61.10;99991.53;7711854;32;39386;-73
2022/06/11 05:19:47;;;;;;;15.30;7.10;;;;;;;20.34;60.76;99996.38;7710960;32;39943;-74
2022/06/11 05:24:04;;;;;;;13.10;7.87;;;;;;;20.27;60.19;99994.91;7711467;32;38040;-73
2022/06/11 05:28:27;;;;;;;18.08;7.97;;;;;;;20.47;60.22;99989.75;7711837;32;36793;-74
2022/06/11 05:32:44;;;;;;;10.52;6.97;;;;;;;20.53;59.71;100002.28;7711034;32;39238;-73
2022/06/11 05:37:00;;;;;;;11.20;7.43;;;;;;;20.66;59.81;100008.75;7711520;32;39885;-73
2022/06/11 05:41:16;;;;;;;13.50;7.40;;;;;;;20.77;58.68;100009.22;7711642;32;38484;-74
2022/06/11 05:45:37;;;;;;;10.82;7.25;;;;;;;20.88;58.62;100004.06;7692580;32;37977;-73
2022/06/11 05:49:56;;;;;;;15.50;7.50;;;;;;;20.92;59.24;100003.09;7710547;32;40061;-74
2022/06/11 05:54:20;;;;;;;12.43;8.10;;;;;;;21.25;58.49;100005.12;7710409;32;40007;-73
2022/06/11 05:58:45;;;;;;;11.25;7.62;;;;;;;21.32;58.10;99996.25;7711445;32;38765;-73
2022/06/11 06:03:01;;;;;;;12.80;7.45;;;;;;;21.55;56.62;100008.62;7708145;32;37173;-74
2022/06/11 06:07:17;;;;;;;13.65;7.90;;;;;;;21.81;56.78;100007.56;7693603;32;38979;-74
2022/06/11 06:11:34;;;;;;;10.40;7.47;;;;;;;21.73;56.58;100012.06;7683001;32;40208;-73
2022/06/11 06:15:52;;;;;;;11.02;7.40;;;;;;;22.07;56.20;100021.16;7683220;32;38480;-73
2022/06/11 06:20:11;;;;;;;10.55;7.20;;;;;;;22.35;55.49;100019.72;7684972;32;37214;-74
2022/06/11 06:24:28;;;;;;;10.68;6.93;;;;;;;22.60;55.40;100012.22;7684867;32;40213;-73
2022/06/11 06:28:44;;;;;;;12.60;6.97;;;;;;;22.59;55.43;100010.59;7684717;32;40803;-74
2022/06/11 06:33:00;;;;;;;9.80;6.97;;;;;;;23.09;54.56;100020.53;7684001;32;37764;-73
2022/06/11 06:37:17;;;;;;;11.15;7.22;;;;;;;22.84;54.97;100014.97;7684367;32;36972;-73
2022/06/11 06:41:33;;;;;;;13.70;7.50;;;;;;;22.88;55.22;100015.09;7684586;32;40065;-73
2022/06/11 06:45:49;;;;;;;11.15;7.32;;;;;;;23.10;55.26;100024.13;7683455;32;40756;-74
2022/06/11 06:50:06;;;;;;;10.75;6.75;;;;;;;23.05;55.05;100025.97;7684374;32;38015;-74
2022/06/11 06:54:22;;;;;;;12.15;6.35;;;;;;;23.04;55.45;100013.22;7684378;32;38317;-73
2022/06/11 06:58:39;;;;;;;9.50;6.22;;;;;;;23.32;52.46;100006.94;7684275;32;39253;-73
2022/06/11 07:02:55;;;;;;;12.75;6.60;;;;;;;22.66;53.47;100011.66;7684111;32;39893;-73
2022/06/11 07:07:16;;;;;;;10.73;6.40;;;;;;;23.10;53.43;100004.66;7683772;32;38052;-74
2022/06/11 07:11:32;;;;;;;10.10;6.53;;;;;;;23.19;54.69;100006.13;7684139;32;37176;-73
2022/06/11 07:15:51;;;;;;;12.88;5.70;;;;;;;22.76;53.36;100007.56;7683750;32;40176;-73
2022/06/11 07:20:15;;;;;;;9.45;5.95;;;;;;;22.78;51.59;100015.56;7683761;32;40886;-73
2022/06/11 07:24:34;;;;;;;8.70;5.85;;;;;;;22.74;51.78;100004.34;7682516;32;37968;-74
2022/06/11 07:28:57;;;;;;;9.63;6.12;;;;;;;23.11;52.12;100004.31;7682559;32;37009;-83
2022/06/11 07:33:17;;;;;;;8.85;6.07;;;;;;;23.30;52.16;100000.09;7682423;32;39220;-78
2022/06/11 07:37:35;;;;;;;8.18;6.15;;;;;;;23.38;51.69;100011.06;7683333;32;40027;-81
2022/06/11 07:41:51;;;;;;;9.65;5.90;;;;;;;23.92;51.73;100001.47;7681889;32;37974;-80
2022/06/11 07:46:07;;;;;;;9.05;5.55;;;;;;;24.16;51.18;100010.81;7684503;32;38309;-80
2022/06/11 07:50:44;;;;;;;10.63;5.87;;;;;;;23.89;48.70;100009.72;7687085;32;39321;-79
2022/06/11 07:55:04;;;;;;;11.88;5.90;;;;;;;24.18;48.30;100008.47;7712197;32;40887;-79
2022/06/11 07:59:20;;;;;;;9.32;5.70;;;;;;;24.51;48.19;100010.13;7712864;32;38567;-80
2022/06/11 08:03:38;;;;;;;10.10;5.40;;;;;;;24.67;48.15;100010.13;7713135;32;37785;-81
2022/06/11 08:07:54;;;;;;;9.48;5.55;;;;;;;24.53;47.76;100007.78;7712691;32;39498;-81
2022/06/11 08:12:10;;;;;;;7.05;5.25;;;;;;;24.57;45.96;100003.13;7712893;32;40465;-80
2022/06/11 08:16:27;;;;;;;10.65;5.53;;;;;;;24.61;47.45;100006.81;7712778;32;38097;-80
2022/06/11 08:20:43;;;;;;;9.30;4.93;;;;;;;24.85;47.65;100004.94;7712875;32;37084;-81
2022/06/11 08:25:00;;;;;;;7.45;4.93;;;;;;;24.72;46.90;99999.50;7712806;32;39406;-81
2022/06/11 08:29:16;;;;;;;8.43;5.22;;;;;;;24.74;48.33;100001.91;7712695;32;39701;-82
2022/06/11 08:33:34;;;;;;;9.90;5.22;;;;;;;25.15;46.55;99994.06;7712593;32;37633;-82
2022/06/11 08:37:51;;;;;;;10.75;5.25;;;;;;;25.27;45.42;99984.78;7712544;32;37159;-83
2022/06/11 08:42:27;;;;;;;7.28;5.12;;;;;;;24.69;46.85;99991.84;7712516;32;40112;-81
2022/06/11 08:46:45;;;;;;;8.20;4.93;;;;;;;25.23;46.26;99986.66;7711574;32;39864;-82
2022/06/11 08:51:11;;;;;;;9.60;5.30;;;;;;;25.37;47.48;99983.38;7711014;32;36945;-81
2022/06/11 08:55:33;;;;;;;8.50;4.40;;;;;;;25.93;46.05;99982.06;7711079;32;37120;-80
2022/06/11 09:00:15;;;;;;;9.87;4.40;;;;;;;26.15;44.00;99986.09;7711757;32;39352;-80
2022/06/11 09:05:18;;;;;;;9.00;4.90;;;;;;;26.42;43.18;99992.50;7712178;32;39944;-81
2022/06/11 09:09:59;;;;;;;6.03;4.78;;;;;;;26.05;42.79;99987.50;7690560;32;38239;-79
2022/06/11 09:14:24;;;;;;;9.80;4.97;;;;;;;25.49;45.08;99992.44;7711855;32;37086;-80
2022/06/11 09:19:04;;;;;;;8.60;4.43;;;;;;;26.27;43.67;99982.28;7711803;32;39444;-82
2022/06/11 09:23:38;;;;;;;9.73;4.95;;;;;;;26.30;44.02;99984.31;7711867;32;40604;-84
2022/06/11 09:28:24;;;;;;;7.57;4.53;;;;;;;26.43;43.62;99988.53;7711896;32;37714;-79
2022/06/11 09:32:56;;;;;;;6.78;4.60;;;;;;;26.55;42.20;99985.53;7711841;32;35898;-79
2022/06/11 09:37:49;;;;;;;8.90;4.80;;;;;;;26.51;43.83;99978.25;7710736;32;40107;-81
2022/06/11 09:42:26;;;;;;;11.68;5.00;;;;;;;27.29;41.30;99977.84;7711890;32;40915;-71
2022/06/11 09:46:54;;;;;;;7.75;4.20;;;;;;;27.68;41.97;99972.69;7711852;32;38582;-70
2022/06/11 09:51:36;;;;;;;7.70;4.12;;;;;;;27.91;41.15;99971.72;7711998;32;36726;-70
2022/06/11 09:56:21;;;;;;;8.50;4.35;;;;;;;27.88;39.21;99966.88;7711836;32;39469;-71
2022/06/11 10:00:57;;;;;;;7.78;3.97;;;;;;;27.89;38.05;99974.09;7711635;32;39885;-71
2022/06/11 10:05:25;;;;;;;6.68;4.00;;;;;;;28.71;39.54;99965.59;7710582;32;38748;-72
2022/06/11 10:09:46;;;;;;;7.18;4.10;;;;;;;28.74;39.94;99970.41;7709129;32;37932;-72
2022/06/11 10:18:44;;;;;;;6.80;4.65;;;;;;;28.22;37.18;99966.81;7711453;32;39934;-70
2022/06/11 10:23:12;;;;;;;7.20;4.40;;;;;;;28.08;37.05;99962.69;7710152;32;37826;-71
2022/06/11 10:27:32;;;;;;;6.12;3.78;;;;;;;28.34;39.87;99960.91;7711529;32;37198;-71
2022/06/11 10:32:09;;;;;;;6.15;3.92;;;;;;;28.80;38.54;99952.03;7710248;32;39327;-70
2022/06/11 10:36:25;;;;;;;9.52;3.97;;;;;;;29.12;35.95;99950.59;7707397;32;39873;-72
2022/06/11 10:40:44;;;;;;;10.27;4.00;;;;;;;29.69;36.69;99938.75;7711129;32;38766;-70
2022/06/11 10:45:00;;;;;;;4.20;2.97;;;;;;;29.66;34.59;99945.94;7710153;32;37283;-72
2022/06/11 10:49:18;;;;;;;4.75;3.40;;;;;;;29.32;34.86;99942.66;7710349;32;37210;-71
2022/06/11 10:53:43;;;;;;;6.65;3.40;;;;;;;29.52;35.79;99941.09;7709741;32;40580;-72
2022/06/11 10:58:10;;;;;;;5.50;3.30;;;;;;;29.87;34.79;99938.78;7710702;32;37894;-70
2022/06/11 11:02:56;;;;;;;9.40;3.40;;;;;;;29.65;35.90;99938.75;7710947;32;37318;-72
2022/06/11 11:07:20;;;;;;;5.20;3.25;;;;;;;29.90;34.40;99935.97;7708839;32;38987;-71
2022/06/11 11:11:45;;;;;;;7.40;3.20;;;;;;;29.42;35.03;99938.28;7710549;32;40795;-72
2022/06/11 11:16:08;;;;;;;6.10;3.33;;;;;;;29.05;33.42;99928.91;7710487;32;38053;-70
2022/06/11 11:20:39;;;;;;;6.37;3.22;;;;;;;29.05;35.58;99928.09;7710129;32;37113;-70
2022/06/11 11:24:56;;;;;;;6.45;2.92;;;;;;;29.08;34.56;99925.31;7709466;32;40035;-70
2022/06/11 11:29:23;;;;;;;5.00;3.08;;;;;;;29.53;34.48;99928.69;7709006;32;39904;-72
2022/06/11 11:33:43;;;;;;;4.20;2.90;;;;;;;29.64;33.42;99920.28;7708937;32;37852;-70
2022/06/11 11:38:03;;;;;;;7.35;2.87;;;;;;;28.97;32.80;99916.03;7708858;32;37136;-71
2022/06/11 11:42:46;;;;;;;5.70;2.67;;;;;;;29.31;33.75;99908.16;7709957;32;40064;-79
2022/06/11 11:47:09;;;;;;;4.57;2.87;;;;;;;28.63;34.80;99907.84;7708667;32;40571;-80
2022/06/11 11:51:33;;;;;;;6.72;3.20;;;;;;;29.46;36.90;99909.00;7708393;32;38603;-82
2022/06/11 11:56:04;;;;;;;4.75;3.12;;;;;;;30.36;34.91;99908.31;7709636;32;37029;-80
2022/06/11 12:00:45;;;;;;;4.32;2.37;;;;;;;29.78;32.48;99889.41;7708462;32;40457;-80
2022/06/11 12:05:10;;;;;;;8.25;3.00;;;;;;;30.67;32.84;99892.56;7708467;32;40693;-75
2022/06/11 12:09:30;;;;;;;6.93;2.83;;;;;;;30.42;32.67;99898.25;7707882;32;38747;-82
2022/06/11 12:13:51;;;;;;;8.10;3.35;;;;;;;30.80;32.23;99887.28;7709220;32;35338;-83
2022/06/11 12:18:14;;;;;;;7.15;2.62;;;;;;;30.64;31.17;99885.72;7707625;32;39320;-85
2022/06/11 12:22:46;;;;;;;;;;;;;;;31.08;31.94;99886.41;7708012;32;39948;-81
2022/06/11 12:27:12;;;;;;;4.65;2.67;;;;;;;30.95;32.63;99880.41;7708840;32;38955;-82
2022/06/11 12:31:31;;;;;;;8.55;2.85;;;;;;;30.56;30.91;99889.75;7707740;32;37031;-73
2022/06/11 12:36:19;;;;;;;4.40;2.58;;;;;;;30.61;32.37;99897.78;7712458;32;39333;-74
2022/06/11 12:40:59;;;;;;;4.97;2.72;;;;;;;30.94;33.13;99892.88;7712243;32;39935;-73
2022/06/11 12:45:51;;;;;;;6.40;2.92;;;;;;;31.59;30.76;99870.81;7710669;32;37858;-73
2022/06/11 12:50:15;;;;;;;3.47;2.60;;;;;;;31.45;31.85;99873.72;7705073;32;37056;-72
2022/06/11 12:54:47;;;;;;;5.60;2.80;;;;;;;31.11;31.72;99870.69;7709671;32;39330;-79
2022/06/11 12:59:35;;;;;;;4.70;2.55;;;;;;;31.04;31.18;99858.25;7710810;32;39848;-79
2022/06/11 13:04:15;;;;;;;4.10;2.90;;;;;;;31.16;31.53;99867.44;7711070;32;37749;-71
2022/06/11 13:08:52;;;;;;;5.85;2.70;;;;;;;30.96;31.63;99856.69;7711138;32;37036;-72
2022/06/11 13:13:42;;;;;;;4.45;2.83;;;;;;;30.87;33.57;99864.72;7712198;32;39484;-71
2022/06/11 13:18:10;;;;;;;4.57;2.70;;;;;;;30.70;32.90;99867.22;7712070;32;39687;-74
2022/06/11 13:22:41;;;;;;;4.72;2.70;;;;;;;30.33;33.17;99865.69;7712160;32;37915;-75
2022/06/11 13:27:06;;;;;;;5.70;2.87;;;;;;;29.83;34.83;99865.75;7712120;32;37143;-74
2022/06/11 13:31:48;;;;;;;4.65;2.90;;;;;;;29.43;34.93;99852.84;7712132;32;39454;-75
2022/06/11 13:36:07;;;;;;;3.47;3.00;;;;;;;29.59;34.81;99854.06;7712023;32;39621;-74
2022/06/11 13:40:49;;;;;;;4.43;2.97;;;;;;;29.07;34.85;99858.34;7711898;32;38735;-75
2022/06/11 13:45:16;;;;;;;7.00;3.03;;;;;;;29.14;35.41;99859.16;7711672;32;37828;-74
2022/06/11 13:49:49;;;;;;;3.50;2.75;;;;;;;28.68;36.14;99859.78;7710740;32;40069;-74
2022/06/11 13:59:43;;;;;;;3.65;2.85;;;;;;;28.77;35.16;99860.25;7711571;32;37842;-74
2022/06/11 14:04:17;;;;;;;4.97;2.72;;;;;;;28.68;35.34;99854.16;7708466;32;37255;-74
2022/06/11 14:09:03;;;;;;;4.10;3.30;;;;;;;28.52;35.06;99848.06;7710632;32;40033;-74
2022/06/11 14:13:21;;;;;;;4.50;2.90;;;;;;;28.54;37.67;99856.87;7710037;32;40209;-74
2022/06/11 14:18:12;;;;;;;7.05;2.83;;;;;;;28.39;37.24;99853.19;7709638;32;37941;-74
2022/06/11 14:22:44;;;;;;;4.40;2.92;;;;;;;28.28;36.64;99853.12;7708745;32;37027;-74
2022/06/11 14:27:00;;;;;;;4.32;3.10;;;;;;;28.20;39.73;99857.06;7710627;32;39063;-75
2022/06/11 14:31:17;;;;;;;7.75;3.65;;;;;;;28.10;39.46;99859.41;7710979;32;40884;-75
2022/06/11 14:35:52;;;;;;;6.10;3.08;;;;;;;28.30;40.83;99861.94;7685530;32;37947;-75
2022/06/11 14:40:32;;;;;;;7.70;3.12;;;;;;;28.24;43.56;99852.31;7710855;32;37187;-75
2022/06/11 14:45:25;;;;;;;4.93;3.08;;;;;;;28.29;40.12;99849.16;7710080;32;40109;-76
2022/06/11 14:49:46;;;;;;;3.00;2.70;;;;;;;28.41;39.24;99840.41;7710781;32;40148;-75
2022/06/11 14:54:02;;;;;;;10.32;3.55;;;;;;;28.59;38.06;99834.09;7709213;32;37563;-77
2022/06/11 14:58:57;;;;;;;6.95;2.50;;;;;;;28.51;36.81;99829.62;7710128;32;37794;-76
2022/06/11 15:03:14;;;;;;;3.35;2.95;;;;;;;28.18;38.27;99849.09;7709805;32;40174;-76
2022/06/11 15:07:30;;;;;;;3.75;2.85;;;;;;;28.22;39.18;99837.91;7709838;32;40243;-78
2022/06/11 15:12:17;;;;;;;3.58;2.62;;;;;;;28.19;40.19;99833.06;7709496;32;37983;-77
2022/06/11 15:16:41;;;;;;;4.78;3.05;;;;;;;28.32;39.68;99831.56;7693395;32;36850;-77
2022/06/11 15:21:02;;;;;;;2.92;2.62;;;;;;;28.20;39.42;99829.88;7706651;32;38958;-77
2022/06/11 15:25:21;;;;;;;5.75;2.95;;;;;;;28.26;40.07;99824.69;7707854;32;39676;-76
2022/06/11 15:29:37;;;;;;;6.65;3.12;;;;;;;28.49;38.53;99830.00;7709683;32;37853;-76
2022/06/11 15:33:55;;;;;;;4.05;2.83;;;;;;;28.36;39.11;99831.56;7709764;32;38148;-77
2022/06/11 15:38:33;;;;;;;6.72;3.10;;;;;;;28.64;38.30;99825.31;7708419;32;39961;-75
2022/06/11 15:42:49;;;;;;;3.00;2.50;;;;;;;29.08;36.12;99826.25;7708357;32;39848;-76
2022/06/11 15:47:18;;;;;;;4.28;2.80;;;;;;;28.58;35.64;99827.72;7709236;32;38804;-76
2022/06/11 15:51:34;;;;;;;4.78;2.80;;;;;;;28.75;37.26;99828.97;7709755;32;37873;-76
2022/06/11 15:55:51;;;;;;;5.15;2.78;;;;;;;28.51;36.38;99833.25;7708102;32;39118;-76
2022/06/11 16:00:18;;;;;;;4.43;2.30;;;;;;;28.54;36.91;99826.84;7708686;32;40002;-76
2022/06/11 16:04:44;;;;;;;4.22;2.37;;;;;;;28.26;36.30;99830.31;7709247;32;38689;-76
2022/06/11 16:09:22;;;;;;;6.00;2.80;;;;;;;27.93;37.53;99822.88;7709415;32;37889;-75
2022/06/11 16:13:40;;;;;;;6.90;2.28;;;;;;;27.99;38.35;99830.50;7709540;32;37991;-73
2022/06/11 16:17:56;;;;;;;3.58;2.58;;;;;;;28.08;37.29;99825.37;7709962;32;39906;-74
2022/06/11 16:22:22;;;;;;;5.87;2.80;;;;;;;27.94;38.27;99822.50;7723147;32;38426;-74
2022/06/11 16:26:39;;;;;;;5.93;3.25;;;;;;;27.92;37.17;99822.06;7711299;32;37628;-74
2022/06/11 16:30:55;;;;;;;8.00;3.08;;;;;;;27.67;39.29;99819.84;7712106;32;40159;-73
2022/06/11 16:35:17;;;;;;;9.65;3.70;;;;;;;27.82;41.28;99825.56;7710718;32;39850;-73
2022/06/11 16:39:36;;;;;;;;;;;;;;;27.76;41.51;99824.31;7706259;32;38744;-74
2022/06/11 16:43:52;;;;;;;16.58;2.75;;;;;;;27.77;38.84;99828.72;7712540;32;36634;-74
2022/06/11 16:48:19;;;;;;;6.25;2.58;;;;;;;28.04;39.19;99832.94;7710506;32;39896;-75
2022/06/11 16:57:19;;;;;;;4.80;2.15;;;;;;;28.04;38.19;99841.34;7710726;32;37501;-74
2022/06/11 17:01:48;;;;;;;2.53;2.00;;;;;;;28.26;37.41;99831.09;7706762;32;37346;-74
2022/06/11 17:06:06;;;;;;;5.60;1.98;;;;;;;28.10;37.02;99841.81;7686510;32;40227;-75
2022/06/11 17:10:32;;;;;;;2.53;1.85;;;;;;;28.13;36.09;99834.63;7702504;32;40064;-75
2022/06/11 17:15:20;;;;;;;3.45;2.10;;;;;;;28.15;36.26;99847.06;7710685;32;38638;-74
2022/06/11 17:19:36;;;;;;;3.17;2.00;;;;;;;28.15;36.86;99846.22;7710355;32;37526;-74
2022/06/11 17:23:56;;;;;;;7.20;2.28;;;;;;;28.18;36.42;99846.28;7710922;32;39838;-74
2022/06/11 17:28:28;;;;;;;4.00;2.20;;;;;;;27.94;36.03;99850.50;7712080;32;39629;-74
2022/06/11 17:32:52;;;;;;;3.33;2.00;;;;;;;28.05;35.60;99850.59;7711818;32;37622;-74
2022/06/11 17:37:21;;;;;;;5.57;2.20;;;;;;;28.05;35.13;99842.19;7711906;32;37245;-74
2022/06/11 17:41:38;;;;;;;7.12;2.10;;;;;;;27.82;35.15;99853.56;7709999;32;39290;-74
2022/06/11 17:45:54;;;;;;;9.13;2.55;;;;;;;27.59;36.58;99851.78;7711493;32;40024;-74
2022/06/11 17:50:18;;;;;;;5.15;2.33;;;;;;;27.70;37.19;99852.69;7711600;32;38689;-74
2022/06/11 17:54:37;;;;;;;4.90;2.08;;;;;;;27.68;36.60;99866.28;7711745;32;37174;-73
2022/06/11 17:58:53;;;;;;;4.40;2.40;;;;;;;27.74;36.58;99866.72;7711673;32;39064;-74
2022/06/11 18:03:16;;;;;;;4.85;3.58;;;;;;;27.55;37.66;99873.34;7711517;32;39912;-75
2022/06/11 18:07:33;;;;;;;4.85;2.70;;;;;;;27.49;39.91;99878.50;7711378;32;37579;-74
2022/06/11 18:11:49;;;;;;;4.40;2.30;;;;;;;27.32;37.91;99888.31;7710975;32;36967;-75
2022/06/11 18:16:12;;;;;;;4.82;2.40;;;;;;;27.10;39.06;99880.84;7710250;32;39403;-74
2022/06/11 18:20:28;;;;;;;6.35;2.90;;;;;;;26.83;38.05;99886.50;7710298;32;41050;-75
2022/06/11 18:29:19;;;;;;;5.05;2.80;;;;;;;26.55;38.74;99890.50;7703758;32;166212;-76
2022/06/11 18:33:35;;;;;;;7.60;2.90;;;;;;;26.40;37.85;99888.66;7711360;32;40046;-75
2022/06/11 18:37:51;;;;;;;10.18;4.28;;;;;;;26.16;40.82;99901.06;7711116;32;40713;-75
2022/06/11 18:42:08;;;;;;;10.75;6.40;;;;;;;26.27;41.57;99899.28;7711117;32;38722;-74
2022/06/11 18:46:24;;;;;;;6.05;3.83;;;;;;;26.18;41.51;99907.09;7705416;32;37316;-76
2022/06/11 18:50:41;;;;;;;3.35;2.58;;;;;;;25.95;41.74;99916.31;7697687;32;39049;-74
2022/06/11 18:54:57;;;;;;;9.88;3.10;;;;;;;25.92;39.99;99919.81;7711097;32;40918;-74
2022/06/11 18:59:14;;;;;;;4.22;2.45;;;;;;;25.88;39.13;99916.16;7710398;32;37895;-74
2022/06/11 19:03:30;;;;;;;5.95;2.53;;;;;;;25.64;39.20;99931.28;7709383;32;37592;-74
2022/06/11 19:07:47;;;;;;;4.07;2.42;;;;;;;25.30;40.44;99936.59;7710562;32;39227;-73
2022/06/11 19:12:04;;;;;;;2.97;2.42;;;;;;;25.17;40.31;99940.72;7710572;32;39993;-75
2022/06/11 19:16:20;;;;;;;4.35;2.72;;;;;;;25.30;40.13;99944.97;7710582;32;36345;-76
2022/06/11 19:20:38;;;;;;;4.22;2.50;;;;;;;25.09;41.54;99950.91;7710495;32;36758;-75
2022/06/11 19:24:54;;;;;;;5.68;2.65;;;;;;;25.01;42.16;99944.38;7709430;32;39327;-74
2022/06/11 19:29:12;;;;;;;4.82;2.58;;;;;;;24.91;41.38;99956.91;7709878;32;39630;-74
2022/06/11 19:33:29;;;;;;;4.57;2.47;;;;;;;24.86;42.09;99956.37;7709510;32;39856;-73
2022/06/11 19:37:45;;;;;;;7.45;3.17;;;;;;;24.60;42.48;99960.59;7709666;32;35557;-75
2022/06/11 19:42:04;;;;;;;3.72;2.60;;;;;;;24.43;42.70;99963.72;7707676;32;40173;-74
2022/06/11 19:46:22;;;;;;;3.80;2.50;;;;;;;24.49;41.37;99968.69;7700583;32;39953;-74
2022/06/11 19:50:38;;;;;;;2.83;2.08;;;;;;;24.35;41.09;99966.34;7709345;32;37956;-74
2022/06/11 19:54:57;;;;;;;4.37;2.22;;;;;;;24.11;42.25;99972.91;7707855;32;36974;-74
2022/06/11 19:59:14;;;;;;;7.30;2.40;;;;;;;24.30;42.26;99982.50;7712825;32;39540;-74
2022/06/11 20:03:31;;;;;;;6.87;3.00;;;;;;;24.16;42.93;99988.53;7712696;32;39578;-75
2022/06/11 20:07:51;;;;;;;5.10;2.65;;;;;;;23.84;44.24;99987.72;7712796;32;38708;-73
2022/06/11 20:12:08;;;;;;;6.05;2.78;;;;;;;23.79;43.88;99997.09;7713099;32;37003;-74
2022/06/11 20:16:27;;;;;;;3.62;2.60;;;;;;;23.65;44.28;100002.28;7712899;32;40105;-74
2022/06/11 20:20:44;;;;;;;4.43;2.40;;;;;;;23.78;43.13;100003.81;7711551;32;40141;-74
2022/06/11 20:25:00;;;;;;;5.75;2.42;;;;;;;23.62;42.99;100001.81;7711584;32;38511;-75
2022/06/11 20:29:17;;;;;;;7.12;2.60;;;;;;;23.58;43.18;100000.91;7712438;32;37118;-74
2022/06/11 20:33:33;;;;;;;4.00;2.33;;;;;;;23.50;42.41;100003.84;7712176;32;39361;-73
2022/06/11 20:37:52;;;;;;;3.58;2.45;;;;;;;23.51;43.44;100009.06;7711539;32;39697;-74
2022/06/11 20:42:10;;;;;;;3.67;2.40;;;;;;;23.55;43.91;100006.37;7712182;32;36546;-74
2022/06/11 20:46:27;;;;;;;5.35;2.22;;;;;;;23.33;45.16;100005.75;7712342;32;37141;-74
2022/06/11 20:50:45;;;;;;;5.22;2.35;;;;;;;23.31;44.50;100005.28;7712308;32;39391;-74